sensor_id;sensor_type;location;lat;lon;timestamp;temperature;humidity
64743;HTU21D;51177;45.018;38.982;2022-12-07T00:00:06;0.58;67.74
64743;HTU21D;51177;45.018;38.982;2022-12-07T00:02:32;0.58;67.88
64743;HTU21D;51177;45.018;38.982;2022-12-07T00:04:59;0.57;67.72
64743;HTU21D;51177;45.018;38.982;2022-12-07T00:07:25;0.54;67.79
64743;HTU21D;51177;45.018;38.982;2022-12-07T00:09:50;0.53;67.56
64743;HTU21D;51177;45.018;38.982;2022-12-07T00:12:16;0.51;67.57
64743;HTU21D;51177;45.018;38.982;2022-12-07T00:14:42;0.48;67.91
64743;HTU21D;51177;45.018;38.982;2022-12-07T00:17:08;0.47;68.04
64743;HTU21D;51177;45.018;38.982;2022-12-07T00:19:34;0.48;67.84
64743;HTU21D;51177;45.018;38.982;2022-12-07T00:22:00;0.44;67.59
64743;HTU21D;51177;45.018;38.982;2022-12-07T00:24:26;0.45;67.67
64743;HTU21D;51177;45.018;38.982;2022-12-07T00:26:54;0.43;67.68
64743;HTU21D;51177;45.018;38.982;2022-12-07T00:29:20;0.42;67.85
64743;HTU21D;51177;45.018;38.982;2022-12-07T00:31:47;0.39;67.67
64743;HTU21D;51177;45.018;38.982;2022-12-07T00:34:14;0.37;67.76
64743;HTU21D;51177;45.018;38.982;2022-12-07T00:36:41;0.36;67.73
64743;HTU21D;51177;45.018;38.982;2022-12-07T00:39:07;0.35;67.97
64743;HTU21D;51177;45.018;38.982;2022-12-07T00:41:34;0.36;68.09
64743;HTU21D;51177;45.018;38.982;2022-12-07T00:44:00;0.36;67.88
64743;HTU21D;51177;45.018;38.982;2022-12-07T00:46:26;0.33;67.92
64743;HTU21D;51177;45.018;38.982;2022-12-07T00:48:52;0.33;67.84
64743;HTU21D;51177;45.018;38.982;2022-12-07T00:51:20;0.34;68.07
64743;HTU21D;51177;45.018;38.982;2022-12-07T00:53:46;0.33;67.97
64743;HTU21D;51177;45.018;38.982;2022-12-07T00:56:16;0.34;68.07
64743;HTU21D;51177;45.018;38.982;2022-12-07T00:58:42;0.34;68.54
64743;HTU21D;51177;45.018;38.982;2022-12-07T01:01:09;0.33;68.13
64743;HTU21D;51177;45.018;38.982;2022-12-07T01:03:35;0.31;67.97
64743;HTU21D;51177;45.018;38.982;2022-12-07T01:06:05;0.30;68.03
64743;HTU21D;51177;45.018;38.982;2022-12-07T01:08:32;0.25;68.07
64743;HTU21D;51177;45.018;38.982;2022-12-07T01:10:59;0.28;68.23
64743;HTU21D;51177;45.018;38.982;2022-12-07T01:13:25;0.29;68.75
64743;HTU21D;51177;45.018;38.982;2022-12-07T01:15:51;0.28;68.15
64743;HTU21D;51177;45.018;38.982;2022-12-07T01:18:17;0.28;68.23
64743;HTU21D;51177;45.018;38.982;2022-12-07T01:20:43;0.28;68.26
64743;HTU21D;51177;45.018;38.982;2022-12-07T01:23:09;0.27;68.11
64743;HTU21D;51177;45.018;38.982;2022-12-07T01:25:35;0.28;68.78
64743;HTU21D;51177;45.018;38.982;2022-12-07T01:28:01;0.25;68.38
64743;HTU21D;51177;45.018;38.982;2022-12-07T01:30:27;0.22;68.42
64743;HTU21D;51177;45.018;38.982;2022-12-07T01:32:53;0.19;68.39
64743;HTU21D;51177;45.018;38.982;2022-12-07T01:35:19;0.19;68.32
64743;HTU21D;51177;45.018;38.982;2022-12-07T01:37:45;0.17;68.58
64743;HTU21D;51177;45.018;38.982;2022-12-07T01:40:11;0.17;68.97
64743;HTU21D;51177;45.018;38.982;2022-12-07T01:42:37;0.16;68.64
64743;HTU21D;51177;45.018;38.982;2022-12-07T01:47:50;0.13;69.36
64743;HTU21D;51177;45.018;38.982;2022-12-07T01:50:16;0.12;68.45
64743;HTU21D;51177;45.018;38.982;2022-12-07T01:52:42;0.12;68.39
64743;HTU21D;51177;45.018;38.982;2022-12-07T01:55:11;0.12;69.04
64743;HTU21D;51177;45.018;38.982;2022-12-07T01:57:39;0.08;68.94
64743;HTU21D;51177;45.018;38.982;2022-12-07T02:00:06;0.05;68.52
64743;HTU21D;51177;45.018;38.982;2022-12-07T02:02:47;0.03;69.05
64743;HTU21D;51177;45.018;38.982;2022-12-07T02:05:15;0.03;69.06
64743;HTU21D;51177;45.018;38.982;2022-12-07T02:07:42;0.01;69.03
64743;HTU21D;51177;45.018;38.982;2022-12-07T02:10:21;0.01;69.00
64743;HTU21D;51177;45.018;38.982;2022-12-07T02:12:53;-0.01;68.43
64743;HTU21D;51177;45.018;38.982;2022-12-07T02:15:21;-0.03;68.77
64743;HTU21D;51177;45.018;38.982;2022-12-07T02:18:00;-0.07;69.03
64743;HTU21D;51177;45.018;38.982;2022-12-07T02:20:38;-0.07;68.69
64743;HTU21D;51177;45.018;38.982;2022-12-07T02:26:08;-0.05;68.54
64743;HTU21D;51177;45.018;38.982;2022-12-07T02:31:23;-0.00;68.33
64743;HTU21D;51177;45.018;38.982;2022-12-07T02:33:57;0.01;68.26
64743;HTU21D;51177;45.018;38.982;2022-12-07T02:36:26;-0.01;68.43
64743;HTU21D;51177;45.018;38.982;2022-12-07T02:38:58;-0.02;68.31
64743;HTU21D;51177;45.018;38.982;2022-12-07T02:41:33;-0.05;68.33
64743;HTU21D;51177;45.018;38.982;2022-12-07T02:44:01;-0.05;68.24
64743;HTU21D;51177;45.018;38.982;2022-12-07T02:46:36;-0.06;68.15
64743;HTU21D;51177;45.018;38.982;2022-12-07T02:49:03;-0.08;68.11
64743;HTU21D;51177;45.018;38.982;2022-12-07T02:51:30;-0.10;68.09
64743;HTU21D;51177;45.018;38.982;2022-12-07T02:53:56;-0.12;68.24
64743;HTU21D;51177;45.018;38.982;2022-12-07T03:06:42;-0.13;68.17
64743;HTU21D;51177;45.018;38.982;2022-12-07T03:13:15;-0.17;68.43
64743;HTU21D;51177;45.018;38.982;2022-12-07T03:15:28;-0.17;68.19
64743;HTU21D;51177;45.018;38.982;2022-12-07T03:17:55;-0.16;68.39
64743;HTU21D;51177;45.018;38.982;2022-12-07T03:20:23;-0.19;68.13
64743;HTU21D;51177;45.018;38.982;2022-12-07T03:22:50;-0.20;68.45
64743;HTU21D;51177;45.018;38.982;2022-12-07T03:25:18;-0.21;68.27
64743;HTU21D;51177;45.018;38.982;2022-12-07T03:30:14;-0.23;68.15
64743;HTU21D;51177;45.018;38.982;2022-12-07T03:32:49;-0.23;68.21
64743;HTU21D;51177;45.018;38.982;2022-12-07T03:35:20;-0.25;68.20
64743;HTU21D;51177;45.018;38.982;2022-12-07T03:37:52;-0.25;68.13
64743;HTU21D;51177;45.018;38.982;2022-12-07T03:40:28;-0.27;68.19
64743;HTU21D;51177;45.018;38.982;2022-12-07T03:42:57;-0.27;68.08
64743;HTU21D;51177;45.018;38.982;2022-12-07T03:45:27;-0.24;68.12
64743;HTU21D;51177;45.018;38.982;2022-12-07T03:48:15;-0.21;68.16
64743;HTU21D;51177;45.018;38.982;2022-12-07T03:50:57;-0.20;68.04
64743;HTU21D;51177;45.018;38.982;2022-12-07T03:53:36;-0.20;67.98
64743;HTU21D;51177;45.018;38.982;2022-12-07T03:56:07;-0.21;68.03
64743;HTU21D;51177;45.018;38.982;2022-12-07T03:58:33;-0.21;68.35
64743;HTU21D;51177;45.018;38.982;2022-12-07T04:01:00;-0.29;68.11
64743;HTU21D;51177;45.018;38.982;2022-12-07T04:03:26;-0.32;68.19
64743;HTU21D;51177;45.018;38.982;2022-12-07T04:05:52;-0.35;68.23
64743;HTU21D;51177;45.018;38.982;2022-12-07T04:08:18;-0.34;68.28
64743;HTU21D;51177;45.018;38.982;2022-12-07T04:10:43;-0.34;68.28
64743;HTU21D;51177;45.018;38.982;2022-12-07T04:13:09;-0.32;68.42
64743;HTU21D;51177;45.018;38.982;2022-12-07T04:15:35;-0.30;68.56
64743;HTU21D;51177;45.018;38.982;2022-12-07T04:18:01;-0.30;68.36
64743;HTU21D;51177;45.018;38.982;2022-12-07T04:20:27;-0.30;68.24
64743;HTU21D;51177;45.018;38.982;2022-12-07T04:22:53;-0.31;68.46
64743;HTU21D;51177;45.018;38.982;2022-12-07T04:25:19;-0.32;68.52
64743;HTU21D;51177;45.018;38.982;2022-12-07T04:27:44;-0.30;68.51
64743;HTU21D;51177;45.018;38.982;2022-12-07T04:30:10;-0.32;68.71
64743;HTU21D;51177;45.018;38.982;2022-12-07T04:32:36;-0.35;68.95
64743;HTU21D;51177;45.018;38.982;2022-12-07T04:35:03;-0.32;68.88
64743;HTU21D;51177;45.018;38.982;2022-12-07T04:37:30;-0.34;68.92
64743;HTU21D;51177;45.018;38.982;2022-12-07T04:39:55;-0.34;68.77
64743;HTU21D;51177;45.018;38.982;2022-12-07T04:42:22;-0.34;68.75
64743;HTU21D;51177;45.018;38.982;2022-12-07T04:44:48;-0.31;68.58
64743;HTU21D;51177;45.018;38.982;2022-12-07T04:47:14;-0.31;68.47
64743;HTU21D;51177;45.018;38.982;2022-12-07T04:49:41;-0.31;68.63
64743;HTU21D;51177;45.018;38.982;2022-12-07T04:52:07;-0.29;68.70
64743;HTU21D;51177;45.018;38.982;2022-12-07T04:54:33;-0.28;68.57
64743;HTU21D;51177;45.018;38.982;2022-12-07T04:56:58;-0.29;68.58
64743;HTU21D;51177;45.018;38.982;2022-12-07T04:59:24;-0.31;68.46
64743;HTU21D;51177;45.018;38.982;2022-12-07T05:01:51;-0.32;68.45
64743;HTU21D;51177;45.018;38.982;2022-12-07T05:04:17;-0.31;68.66
64743;HTU21D;51177;45.018;38.982;2022-12-07T05:06:43;-0.31;68.55
64743;HTU21D;51177;45.018;38.982;2022-12-07T05:09:09;-0.29;68.81
64743;HTU21D;51177;45.018;38.982;2022-12-07T05:11:35;-0.28;68.54
64743;HTU21D;51177;45.018;38.982;2022-12-07T05:14:08;-0.27;68.53
64743;HTU21D;51177;45.018;38.982;2022-12-07T05:16:35;-0.27;69.26
64743;HTU21D;51177;45.018;38.982;2022-12-07T05:19:02;-0.25;69.15
64743;HTU21D;51177;45.018;38.982;2022-12-07T05:21:28;-0.25;68.94
64743;HTU21D;51177;45.018;38.982;2022-12-07T05:24:00;-0.25;68.81
64743;HTU21D;51177;45.018;38.982;2022-12-07T05:26:26;-0.21;68.96
64743;HTU21D;51177;45.018;38.982;2022-12-07T05:29:17;-0.20;68.95
64743;HTU21D;51177;45.018;38.982;2022-12-07T05:31:43;-0.19;69.16
64743;HTU21D;51177;45.018;38.982;2022-12-07T05:34:09;-0.13;68.81
64743;HTU21D;51177;45.018;38.982;2022-12-07T05:36:35;-0.07;69.00
64743;HTU21D;51177;45.018;38.982;2022-12-07T05:39:01;-0.06;68.86
64743;HTU21D;51177;45.018;38.982;2022-12-07T05:41:27;0.01;69.25
64743;HTU21D;51177;45.018;38.982;2022-12-07T05:44:11;0.03;68.91
64743;HTU21D;51177;45.018;38.982;2022-12-07T05:46:36;0.06;68.97
64743;HTU21D;51177;45.018;38.982;2022-12-07T05:49:02;0.06;68.84
64743;HTU21D;51177;45.018;38.982;2022-12-07T05:51:28;0.08;68.77
64743;HTU21D;51177;45.018;38.982;2022-12-07T05:53:54;0.10;68.75
64743;HTU21D;51177;45.018;38.982;2022-12-07T05:56:20;0.16;68.69
64743;HTU21D;51177;45.018;38.982;2022-12-07T05:58:46;0.19;68.62
64743;HTU21D;51177;45.018;38.982;2022-12-07T06:01:30;0.20;68.47
64743;HTU21D;51177;45.018;38.982;2022-12-07T06:04:00;0.20;68.58
64743;HTU21D;51177;45.018;38.982;2022-12-07T06:06:26;0.21;68.61
64743;HTU21D;51177;45.018;38.982;2022-12-07T06:08:52;0.24;68.61
64743;HTU21D;51177;45.018;38.982;2022-12-07T06:11:17;0.30;68.68
64743;HTU21D;51177;45.018;38.982;2022-12-07T06:14:09;0.42;68.61
64743;HTU21D;51177;45.018;38.982;2022-12-07T06:16:35;0.64;68.36
64743;HTU21D;51177;45.018;38.982;2022-12-07T06:19:01;0.78;68.00
64743;HTU21D;51177;45.018;38.982;2022-12-07T06:21:27;0.89;67.82
64743;HTU21D;51177;45.018;38.982;2022-12-07T06:23:53;1.04;67.49
64743;HTU21D;51177;45.018;38.982;2022-12-07T06:26:19;1.03;67.17
64743;HTU21D;51177;45.018;38.982;2022-12-07T06:28:45;0.94;67.18
64743;HTU21D;51177;45.018;38.982;2022-12-07T06:31:11;0.89;67.37
64743;HTU21D;51177;45.018;38.982;2022-12-07T06:33:37;0.84;67.49
64743;HTU21D;51177;45.018;38.982;2022-12-07T06:36:03;0.81;67.62
64743;HTU21D;51177;45.018;38.982;2022-12-07T06:38:29;0.76;67.71
64743;HTU21D;51177;45.018;38.982;2022-12-07T06:40:54;0.74;67.80
64743;HTU21D;51177;45.018;38.982;2022-12-07T06:43:21;0.72;67.88
64743;HTU21D;51177;45.018;38.982;2022-12-07T06:45:47;0.69;68.07
